createdAt,value
2019-01-20T00:02:20.682Z,0.65
2019-01-20T00:04:49.048Z,0.51
2019-01-20T00:07:17.455Z,0.56
2019-01-20T00:09:45.830Z,0.68
2019-01-20T00:12:14.206Z,0.35
2019-01-20T00:14:43.322Z,0.62
2019-01-20T00:17:11.695Z,0.50
2019-01-20T00:19:40.073Z,0.35
2019-01-20T00:22:08.446Z,0.26
2019-01-20T00:24:36.830Z,0.42
2019-01-20T00:27:05.635Z,0.06
2019-01-20T00:29:34.013Z,0.22
2019-01-20T00:32:02.392Z,0.20
2019-01-20T00:34:30.778Z,0.37
2019-01-20T00:36:59.242Z,0.14
2019-01-20T00:39:27.622Z,0.07
2019-01-20T00:41:55.993Z,0.21
2019-01-20T00:44:24.620Z,-0.12
2019-01-20T00:46:52.993Z,0.10
2019-01-20T00:49:21.371Z,0.14
2019-01-20T00:51:49.756Z,-0.03
2019-01-20T00:54:18.194Z,-0.14
2019-01-20T00:56:46.573Z,0.02
2019-01-20T00:59:14.948Z,-0.22
2019-01-20T01:01:43.329Z,-0.26
2019-01-20T01:04:11.703Z,-0.16
2019-01-20T01:06:40.094Z,0.18
2019-01-20T01:09:08.907Z,-0.15
2019-01-20T01:11:37.354Z,0.00
2019-01-20T01:14:06.102Z,-0.14
2019-01-20T01:16:34.563Z,-0.12
2019-01-20T01:19:03.009Z,-0.35
2019-01-20T01:21:31.713Z,-0.49
2019-01-20T01:24:00.089Z,-0.44
2019-01-20T01:26:28.468Z,-0.40
2019-01-20T01:28:56.844Z,-0.34
2019-01-20T01:31:25.227Z,-0.26
2019-01-20T01:33:53.619Z,-0.35
2019-01-20T01:36:21.983Z,-0.46
2019-01-20T01:38:50.375Z,-0.49
2019-01-20T01:41:18.741Z,-0.50
2019-01-20T01:43:47.135Z,-0.47
2019-01-20T01:46:15.512Z,-0.23
2019-01-20T01:48:43.909Z,-0.26
2019-01-20T01:51:12.287Z,-0.15
2019-01-20T01:53:40.669Z,-0.25
2019-01-20T01:56:09.047Z,-0.05
2019-01-20T01:58:37.432Z,-0.48
2019-01-20T02:01:06.037Z,-0.40
2019-01-20T02:03:34.410Z,-0.41
2019-01-20T02:06:02.795Z,-0.52
2019-01-20T02:08:31.166Z,-0.43
2019-01-20T02:10:59.571Z,-0.18
2019-01-20T02:13:27.944Z,-0.18
2019-01-20T02:15:56.316Z,-0.72
2019-01-20T02:18:24.702Z,-0.64
2019-01-20T02:20:53.077Z,-0.43
2019-01-20T02:23:21.519Z,-0.65
2019-01-20T02:25:49.907Z,-0.64
2019-01-20T02:28:18.281Z,-0.64
2019-01-20T02:30:46.666Z,-0.79
2019-01-20T02:33:15.045Z,-0.41
2019-01-20T02:35:43.432Z,-0.52
2019-01-20T02:38:11.803Z,-0.63
2019-01-20T02:40:40.195Z,-0.56
2019-01-20T02:43:08.570Z,-0.65
2019-01-20T02:45:36.952Z,-0.52
2019-01-20T02:48:05.323Z,-0.71
2019-01-20T02:50:33.697Z,-0.81
2019-01-20T02:53:02.076Z,-0.70
2019-01-20T02:55:30.455Z,-0.76
2019-01-20T02:57:58.847Z,-0.74
2019-01-20T03:00:27.221Z,-0.72
2019-01-20T03:02:55.689Z,-0.76
2019-01-20T03:05:24.587Z,-0.88
2019-01-20T03:07:53.050Z,-0.96
2019-01-20T03:10:21.567Z,-0.87
2019-01-20T03:12:49.942Z,-0.83
2019-01-20T03:15:18.311Z,-0.82
2019-01-20T03:17:46.769Z,-0.38
2019-01-20T03:20:20.307Z,-0.39
2019-01-20T03:22:48.942Z,-0.66
2019-01-20T03:25:17.968Z,-1.16
2019-01-20T03:27:46.357Z,-1.16
2019-01-20T03:30:17.466Z,-1.34
2019-01-20T03:32:45.840Z,-1.74
2019-01-20T03:35:15.339Z,-1.74
2019-01-20T03:37:43.983Z,-1.45
2019-01-20T03:40:15.298Z,-1.27
2019-01-20T03:42:43.745Z,-1.29
2019-01-20T03:45:14.655Z,-1.20
2019-01-20T03:47:43.341Z,-1.09
2019-01-20T03:50:13.671Z,-0.94
2019-01-20T03:52:42.038Z,-0.94
2019-01-20T03:55:12.663Z,-0.99
2019-01-20T03:57:41.042Z,-1.01
2019-01-20T04:00:17.390Z,-1.00
2019-01-20T04:02:47.586Z,-1.00
2019-01-20T04:05:16.042Z,-1.07
2019-01-20T04:07:44.410Z,-0.93
2019-01-20T04:10:16.879Z,-0.95
2019-01-20T04:12:45.338Z,-0.79
2019-01-20T04:15:15.256Z,-0.79
2019-01-20T04:17:44.174Z,-0.97
2019-01-20T04:20:16.179Z,-1.10
2019-01-20T04:22:44.560Z,-1.25
2019-01-20T04:25:17.738Z,-1.01
2019-01-20T04:27:46.196Z,-1.10
2019-01-20T04:30:17.112Z,-0.84
2019-01-20T04:32:45.485Z,-0.84
2019-01-20T04:35:13.945Z,-1.00
2019-01-20T04:37:42.315Z,-0.94
2019-01-20T04:40:16.277Z,-0.78
2019-01-20T04:42:44.657Z,-0.88
2019-01-20T04:45:14.627Z,-1.03
2019-01-20T04:47:43.073Z,-1.24
2019-01-20T04:50:14.273Z,-1.13
2019-01-20T04:52:42.743Z,-0.96
2019-01-20T04:55:13.098Z,-1.23
2019-01-20T04:57:42.547Z,-0.97
2019-01-20T05:00:16.574Z,-0.90
2019-01-20T05:02:44.961Z,-0.92
2019-01-20T05:05:13.407Z,-0.92
2019-01-20T05:07:41.795Z,-0.89
2019-01-20T05:10:12.717Z,-1.19
2019-01-20T05:12:41.093Z,-1.06
2019-01-20T05:15:15.079Z,-1.13
2019-01-20T05:17:43.465Z,-0.92
2019-01-20T05:20:12.867Z,-0.92
2019-01-20T05:22:41.322Z,-0.88
2019-01-20T05:25:10.939Z,-0.97
2019-01-20T05:27:39.307Z,-1.23
2019-01-20T05:30:11.016Z,-1.59
2019-01-20T05:32:39.384Z,-1.17
2019-01-20T05:35:09.312Z,-1.37
2019-01-20T05:37:37.725Z,-1.44
2019-01-20T05:40:08.949Z,-1.44
2019-01-20T05:42:37.326Z,-1.40
2019-01-20T05:45:08.759Z,-1.45
2019-01-20T05:47:37.131Z,-1.39
2019-01-20T05:50:09.162Z,-1.40
2019-01-20T05:52:37.766Z,-1.67
2019-01-20T05:55:11.663Z,-1.71
2019-01-20T05:57:40.105Z,-1.71
2019-01-20T06:00:11.538Z,-1.49
2019-01-20T06:02:39.988Z,-1.29
2019-01-20T06:05:08.372Z,-1.60
2019-01-20T06:07:36.755Z,-1.43
2019-01-20T06:10:08.353Z,-1.43
2019-01-20T06:12:36.994Z,-1.53
2019-01-20T06:15:08.476Z,-1.11
2019-01-20T06:17:37.762Z,-1.50
2019-01-20T06:20:08.493Z,-1.42
2019-01-20T06:22:36.863Z,-1.43
2019-01-20T06:25:07.377Z,-1.74
2019-01-20T06:27:35.817Z,-1.49
2019-01-20T06:30:16.041Z,-1.40
2019-01-20T06:32:44.421Z,-1.30
2019-01-20T06:35:12.876Z,-1.61
2019-01-20T06:37:41.259Z,-1.69
2019-01-20T06:40:09.873Z,-1.69
2019-01-20T06:42:38.256Z,-1.56
2019-01-20T06:45:12.062Z,-1.79
2019-01-20T06:47:40.445Z,-1.85
2019-01-20T06:50:11.800Z,-1.75
2019-01-20T06:52:40.215Z,-1.48
2019-01-20T06:55:10.114Z,-1.48
2019-01-20T06:57:38.573Z,-1.48
2019-01-20T07:00:18.894Z,-1.43
2019-01-20T07:02:47.279Z,-1.43
2019-01-20T07:05:15.668Z,-1.56
2019-01-20T07:07:44.512Z,-1.74
2019-01-20T07:10:17.442Z,-1.44
2019-01-20T07:12:45.842Z,-1.90
2019-01-20T07:15:16.460Z,-1.83
2019-01-20T07:17:44.905Z,-1.83
2019-01-20T07:20:14.340Z,-1.53
2019-01-20T07:22:42.789Z,-1.78
2019-01-20T07:25:11.411Z,-1.78
2019-01-20T07:27:39.776Z,-1.78
2019-01-20T07:30:16.807Z,-1.77
2019-01-20T07:32:45.249Z,-1.85
2019-01-20T07:35:13.983Z,-1.81
2019-01-20T07:37:42.422Z,-1.77
2019-01-20T07:40:16.229Z,-1.61
2019-01-20T07:42:44.607Z,-1.78
2019-01-20T07:45:14.537Z,-1.79
2019-01-20T07:47:42.911Z,-1.84
2019-01-20T07:50:14.222Z,-1.80
2019-01-20T07:52:42.595Z,-1.98
2019-01-20T07:55:11.050Z,-1.83
2019-01-20T07:57:39.435Z,-1.73
2019-01-20T08:00:14.103Z,-1.93
2019-01-20T08:02:42.524Z,-1.93
2019-01-20T08:05:11.238Z,-1.67
2019-01-20T08:07:39.634Z,-1.69
2019-01-20T08:10:16.951Z,-1.69
2019-01-20T08:12:46.244Z,-1.58
2019-01-20T08:15:16.168Z,-1.71
2019-01-20T08:17:44.616Z,-1.57
2019-01-20T08:20:18.496Z,-1.57
2019-01-20T08:22:46.927Z,-1.43
2019-01-20T08:25:16.928Z,-1.45
2019-01-20T08:27:45.376Z,-1.18
2019-01-20T08:30:16.536Z,-1.25
2019-01-20T08:32:44.923Z,-1.41
2019-01-20T08:35:14.235Z,-1.41
2019-01-20T08:37:42.695Z,-1.31
2019-01-20T08:40:19.021Z,-1.24
2019-01-20T08:42:47.399Z,-1.21
2019-01-20T08:45:18.839Z,-1.25
2019-01-20T08:47:49.163Z,-1.45
2019-01-20T08:50:17.587Z,-0.82
2019-01-20T08:52:46.030Z,-0.82
2019-01-20T08:55:14.419Z,-0.88
2019-01-20T08:57:42.831Z,-0.68
2019-01-20T09:00:14.441Z,-0.68
2019-01-20T09:02:42.829Z,-0.72
2019-01-20T09:05:11.556Z,-0.76
2019-01-20T09:07:39.928Z,-0.76
2019-01-20T09:10:14.393Z,-0.50
2019-01-20T09:12:42.937Z,-0.50
2019-01-20T09:15:11.315Z,-0.13
2019-01-20T09:17:39.690Z,-0.23
2019-01-20T09:20:11.115Z,-0.36
2019-01-20T09:22:39.491Z,-0.36
2019-01-20T09:25:10.306Z,-0.26
2019-01-20T09:27:38.767Z,-0.21
2019-01-20T09:30:19.213Z,-0.21
2019-01-20T09:32:47.611Z,-0.16
2019-01-20T09:35:16.149Z,-0.17
2019-01-20T09:37:44.545Z,-0.23
2019-01-20T09:40:15.260Z,-0.24
2019-01-20T09:42:43.727Z,-0.10
2019-01-20T09:45:17.178Z,0.11
2019-01-20T09:47:45.560Z,0.42
2019-01-20T09:50:13.998Z,0.48
2019-01-20T09:52:42.379Z,0.41
2019-01-20T09:55:12.085Z,0.28
2019-01-20T09:57:40.465Z,0.47
2019-01-20T10:00:15.075Z,0.68
2019-01-20T10:02:43.450Z,0.61
2019-01-20T10:05:11.887Z,0.75
2019-01-20T10:07:40.259Z,0.92
2019-01-20T10:10:11.778Z,0.65
2019-01-20T10:12:40.156Z,1.09
2019-01-20T10:15:13.162Z,1.03
2019-01-20T10:17:41.538Z,1.00
2019-01-20T10:20:27.144Z,1.81
2019-01-20T10:22:56.081Z,1.26
2019-01-20T10:25:24.518Z,1.55
2019-01-20T10:27:52.896Z,2.04
2019-01-20T10:30:24.496Z,1.85
2019-01-20T10:32:52.942Z,1.66
2019-01-20T10:35:23.021Z,1.78
2019-01-20T10:38:01.745Z,2.06
2019-01-20T10:40:30.185Z,2.12
2019-01-20T10:42:58.554Z,1.88
2019-01-20T10:45:26.949Z,1.99
2019-01-20T10:47:55.337Z,2.14
2019-01-20T10:50:23.699Z,1.83
2019-01-20T10:52:52.074Z,1.67
2019-01-20T10:55:20.447Z,1.74
2019-01-20T10:57:48.898Z,1.86
2019-01-20T11:00:28.905Z,2.23
2019-01-20T11:02:57.392Z,1.95
2019-01-20T11:05:30.800Z,1.70
2019-01-20T11:07:56.273Z,2.04
2019-01-20T11:10:24.645Z,1.86
2019-01-20T11:12:53.032Z,2.35
2019-01-20T11:15:21.465Z,2.01
2019-01-20T11:17:49.846Z,1.95
2019-01-20T11:20:20.052Z,1.91
2019-01-20T11:22:48.443Z,2.06
2019-01-20T11:25:19.861Z,1.83
2019-01-20T11:27:48.407Z,2.48
2019-01-20T11:30:16.916Z,2.77
2019-01-20T11:32:45.300Z,2.79
2019-01-20T11:35:16.670Z,2.47
2019-01-20T11:37:45.125Z,2.92
2019-01-20T11:40:14.742Z,2.79
2019-01-20T11:42:43.257Z,2.87
2019-01-20T11:45:17.966Z,3.02
2019-01-20T11:47:46.409Z,3.36
2019-01-20T11:50:15.617Z,3.22
2019-01-20T11:52:44.163Z,3.37
2019-01-20T11:55:18.320Z,2.93
2019-01-20T11:57:46.708Z,2.90
2019-01-20T12:00:20.762Z,3.12
2019-01-20T12:02:49.123Z,3.23
2019-01-20T12:05:18.427Z,3.28
2019-01-20T12:07:46.799Z,2.57
2019-01-20T12:10:15.354Z,2.59
2019-01-20T12:12:45.365Z,3.43
2019-01-20T12:15:15.698Z,3.22
2019-01-20T12:17:44.146Z,3.71
2019-01-20T12:20:14.464Z,3.77
2019-01-20T12:22:43.812Z,3.57
2019-01-20T12:25:19.671Z,3.45
2019-01-20T12:27:48.043Z,3.77
2019-01-20T12:30:21.679Z,3.73
2019-01-20T12:32:50.358Z,3.33
2019-01-20T12:35:18.739Z,3.05
2019-01-20T12:37:47.111Z,2.80
2019-01-20T12:40:26.516Z,2.73
2019-01-20T12:42:54.963Z,2.86
2019-01-20T12:45:23.425Z,3.42
2019-01-20T12:47:51.801Z,3.35
2019-01-20T12:50:20.254Z,3.33
2019-01-20T12:52:48.624Z,3.35
2019-01-20T12:55:17.487Z,3.34
2019-01-20T12:57:45.940Z,3.26
2019-01-20T13:00:19.145Z,3.07
2019-01-20T13:02:47.695Z,3.50
2019-01-20T13:05:16.147Z,3.91
2019-01-20T13:07:44.585Z,3.59
2019-01-20T13:10:18.283Z,3.27
2019-01-20T13:12:46.793Z,3.76
2019-01-20T13:15:20.348Z,3.31
2019-01-20T13:17:48.800Z,3.22
2019-01-20T13:20:19.756Z,3.20
2019-01-20T13:22:48.364Z,3.18
2019-01-20T13:25:22.237Z,3.71
2019-01-20T13:27:50.615Z,3.52
2019-01-20T13:30:24.223Z,3.71
2019-01-20T13:32:52.770Z,3.85
2019-01-20T13:35:22.002Z,3.54
2019-01-20T13:37:53.121Z,3.49
2019-01-20T13:40:24.568Z,3.76
2019-01-20T13:42:53.194Z,3.67
2019-01-20T13:45:21.569Z,3.63
2019-01-20T13:47:49.948Z,3.60
2019-01-20T13:50:19.874Z,3.68
2019-01-20T13:52:48.252Z,3.52
2019-01-20T13:55:18.018Z,3.49
2019-01-20T13:57:46.407Z,3.19
2019-01-20T14:00:25.069Z,3.18
2019-01-20T14:02:53.591Z,3.24
2019-01-20T14:05:22.098Z,3.20
2019-01-20T14:07:50.545Z,3.37
2019-01-20T14:10:24.395Z,3.16
2019-01-20T14:12:52.916Z,3.07
2019-01-20T14:15:21.368Z,3.09
2019-01-20T14:17:49.762Z,2.89
2019-01-20T14:20:25.465Z,2.98
2019-01-20T14:22:53.848Z,2.91
2019-01-20T14:25:29.591Z,3.05
2019-01-20T14:27:57.967Z,3.11
2019-01-20T14:30:34.167Z,3.19
2019-01-20T14:33:02.546Z,3.17
2019-01-20T14:35:30.921Z,2.96
2019-01-20T14:37:59.307Z,3.07
2019-01-20T14:40:27.685Z,3.00
2019-01-20T14:42:56.065Z,2.88
2019-01-20T14:45:24.512Z,3.04
2019-01-20T14:47:52.959Z,2.86
2019-01-20T14:50:23.952Z,3.08
2019-01-20T14:52:52.404Z,3.30
2019-01-20T14:55:21.140Z,3.32
2019-01-20T14:57:49.483Z,3.26
2019-01-20T15:00:26.307Z,3.19
2019-01-20T15:02:54.752Z,3.33
2019-01-20T15:05:23.149Z,3.35
2019-01-20T15:07:51.525Z,3.49
2019-01-20T15:10:19.909Z,3.59
2019-01-20T15:12:48.281Z,3.55
2019-01-20T15:15:21.017Z,3.46
2019-01-20T15:17:49.382Z,3.67
2019-01-20T15:20:17.765Z,3.63
2019-01-20T15:22:46.145Z,3.84
2019-01-20T15:25:16.575Z,3.79
2019-01-20T15:27:44.951Z,3.47
2019-01-20T15:30:19.320Z,3.53
2019-01-20T15:32:47.931Z,3.59
2019-01-20T15:35:16.375Z,3.74
2019-01-20T15:37:44.757Z,3.55
2019-01-20T15:40:16.235Z,3.53
2019-01-20T15:42:44.616Z,3.67
2019-01-20T15:45:16.462Z,3.55
2019-01-20T15:47:45.084Z,3.42
2019-01-20T15:50:18.794Z,3.50
2019-01-20T15:52:47.175Z,3.28
2019-01-20T15:55:15.793Z,3.34
2019-01-20T15:57:44.172Z,3.26
2019-01-20T16:00:17.849Z,3.08
2019-01-20T16:02:46.290Z,3.43
2019-01-20T16:05:14.911Z,3.42
2019-01-20T16:07:43.295Z,3.26
2019-01-20T16:10:14.278Z,3.03
2019-01-20T16:12:42.662Z,3.04
2019-01-20T16:15:23.989Z,2.86
2019-01-20T16:17:47.578Z,2.82
2019-01-20T16:20:17.885Z,2.87
2019-01-20T16:22:46.414Z,2.71
2019-01-20T16:25:20.276Z,2.70
2019-01-20T16:27:48.734Z,2.87
2019-01-20T16:30:25.991Z,2.61
2019-01-20T16:32:54.450Z,2.56
2019-01-20T16:35:23.670Z,2.51
2019-01-20T16:37:52.037Z,2.55
2019-01-20T16:40:22.652Z,2.48
2019-01-20T16:42:51.099Z,2.79
2019-01-20T16:45:22.358Z,2.46
2019-01-20T16:47:50.755Z,2.36
2019-01-20T16:50:24.655Z,2.67
2019-01-20T16:52:54.698Z,2.27
2019-01-20T16:55:23.515Z,2.00
2019-01-20T16:57:51.968Z,2.17
2019-01-20T17:00:28.703Z,2.15
2019-01-20T17:02:57.215Z,2.09
2019-01-20T17:05:27.057Z,2.15
2019-01-20T17:07:55.560Z,2.03
2019-01-20T17:10:26.774Z,1.87
2019-01-20T17:12:55.228Z,1.91
2019-01-20T17:15:26.329Z,1.81
2019-01-20T17:17:54.698Z,2.01
2019-01-20T17:20:23.226Z,1.59
2019-01-20T17:22:51.595Z,1.65
2019-01-20T17:25:19.989Z,1.82
2019-01-20T17:27:48.439Z,1.84
2019-01-20T17:30:22.262Z,1.64
2019-01-20T17:32:50.642Z,1.68
2019-01-20T17:35:19.120Z,1.84
2019-01-20T17:37:47.488Z,1.61
2019-01-20T17:40:18.590Z,1.62
2019-01-20T17:42:47.044Z,1.92
2019-01-20T17:45:24.726Z,1.74
2019-01-20T17:47:53.082Z,1.66
2019-01-20T17:50:23.913Z,1.52
2019-01-20T17:52:52.952Z,1.46
2019-01-20T17:55:21.406Z,1.63
2019-01-20T17:57:49.853Z,1.26
2019-01-20T18:00:20.920Z,1.25
2019-01-20T18:02:49.463Z,1.43
2019-01-20T18:05:20.798Z,1.29
2019-01-20T18:07:49.174Z,1.45
2019-01-20T18:10:17.627Z,1.51
2019-01-20T18:12:46.072Z,1.55
2019-01-20T18:15:17.584Z,1.53
2019-01-20T18:17:46.022Z,1.51
2019-01-20T18:20:19.395Z,1.29
2019-01-20T18:22:47.914Z,1.43
2019-01-20T18:25:18.174Z,1.39
2019-01-20T18:27:46.619Z,1.29
2019-01-20T18:30:18.663Z,1.40
2019-01-20T18:32:47.042Z,1.54
2019-01-20T18:35:15.483Z,1.23
2019-01-20T18:37:43.864Z,1.32
2019-01-20T18:40:17.472Z,0.86
2019-01-20T18:42:45.920Z,0.96
2019-01-20T18:45:16.437Z,1.03
2019-01-20T18:47:45.002Z,0.96
2019-01-20T18:50:16.458Z,1.09
2019-01-20T18:52:44.830Z,1.19
2019-01-20T18:55:15.577Z,1.00
2019-01-20T18:57:44.395Z,0.92
2019-01-20T19:00:21.571Z,0.80
2019-01-20T19:02:49.961Z,1.13
2019-01-20T19:05:18.775Z,1.07
2019-01-20T19:07:47.457Z,0.80
2019-01-20T19:10:18.881Z,0.74
2019-01-20T19:12:47.336Z,0.57
2019-01-20T19:15:18.510Z,0.76
2019-01-20T19:17:46.812Z,0.66
2019-01-20T19:20:19.608Z,0.38
2019-01-20T19:22:48.938Z,0.66
2019-01-20T19:25:17.576Z,0.72
2019-01-20T19:27:46.129Z,0.72
2019-01-20T19:30:17.483Z,0.83
2019-01-20T19:32:45.864Z,0.93
2019-01-20T19:35:14.382Z,0.74
2019-01-20T19:37:42.830Z,0.79
2019-01-20T19:40:13.345Z,0.64
2019-01-20T19:42:41.752Z,0.70
2019-01-20T19:45:12.868Z,0.53
2019-01-20T19:47:41.239Z,0.54
2019-01-20T19:50:12.025Z,0.45
2019-01-20T19:52:40.442Z,0.33
2019-01-20T19:55:11.861Z,0.34
2019-01-20T19:57:40.230Z,0.31
2019-01-20T20:00:14.787Z,0.12
2019-01-20T20:02:43.164Z,-0.24
2019-01-20T20:05:14.103Z,0.14
2019-01-20T20:07:42.484Z,-0.10
2019-01-20T20:10:13.703Z,0.23
2019-01-20T20:12:42.073Z,-0.12
2019-01-20T20:15:16.401Z,0.01
2019-01-20T20:17:45.024Z,-0.16
2019-01-20T20:20:15.904Z,-0.02
2019-01-20T20:22:44.282Z,0.15
2019-01-20T20:25:15.003Z,-0.10
2019-01-20T20:27:43.382Z,0.12
2019-01-20T20:30:20.654Z,0.13
2019-01-20T20:32:49.018Z,0.02
2019-01-20T20:35:17.404Z,-0.08
2019-01-20T20:37:45.784Z,-0.03
2019-01-20T20:40:19.265Z,0.01
2019-01-20T20:42:47.644Z,-0.05
2019-01-20T20:45:18.714Z,0.14
2019-01-20T20:47:47.241Z,0.01
2019-01-20T20:50:16.966Z,0.04
2019-01-20T20:52:46.254Z,0.09
2019-01-20T20:55:14.872Z,0.12
2019-01-20T20:57:43.496Z,-0.24
2019-01-20T21:00:20.566Z,-0.21
2019-01-20T21:02:49.011Z,-0.18
2019-01-20T21:05:17.403Z,-0.13
2019-01-20T21:07:45.924Z,0.14
2019-01-20T21:10:17.608Z,-0.17
2019-01-20T21:12:46.073Z,-0.29
2019-01-20T21:15:16.207Z,-0.06
2019-01-20T21:17:48.455Z,0.20
2019-01-20T21:20:22.611Z,-0.36
2019-01-20T21:22:51.067Z,-0.56
2019-01-20T21:25:19.638Z,-0.52
2019-01-20T21:27:48.025Z,-0.62
2019-01-20T21:30:27.455Z,-0.43
2019-01-20T21:32:55.842Z,-0.42
2019-01-20T21:35:24.293Z,-0.45
2019-01-20T21:37:52.681Z,-0.03
2019-01-20T21:40:21.125Z,-0.08
2019-01-20T21:42:49.589Z,-0.25
2019-01-20T21:45:18.911Z,-0.30
2019-01-20T21:47:47.439Z,-0.21
2019-01-20T21:50:21.462Z,-0.50
2019-01-20T21:52:49.850Z,-0.46
2019-01-20T21:55:18.302Z,-0.56
2019-01-20T21:57:46.684Z,-0.64
2019-01-20T22:00:20.254Z,-0.27
2019-01-20T22:02:48.645Z,-0.44
2019-01-20T22:05:17.031Z,-0.40
2019-01-20T22:07:46.060Z,-0.87
2019-01-20T22:10:19.307Z,-0.66
2019-01-20T22:12:47.770Z,-0.66
2019-01-20T22:15:16.389Z,-0.80
2019-01-20T22:17:45.613Z,-0.81
2019-01-20T22:20:16.336Z,-0.69
2019-01-20T22:22:44.864Z,-0.96
2019-01-20T22:25:13.787Z,-0.99
2019-01-20T22:27:42.433Z,-0.85
2019-01-20T22:30:19.188Z,-0.67
2019-01-20T22:32:47.584Z,-0.70
2019-01-20T22:35:16.199Z,-0.67
2019-01-20T22:37:44.588Z,-0.62
2019-01-20T22:40:15.210Z,-0.80
2019-01-20T22:42:43.579Z,-0.81
2019-01-20T22:45:14.647Z,-0.92
2019-01-20T22:47:43.025Z,-0.68
2019-01-20T22:50:13.163Z,-0.81
2019-01-20T22:52:41.796Z,-0.94
2019-01-20T22:55:15.613Z,-0.73
2019-01-20T22:57:44.325Z,-1.05
2019-01-20T23:00:18.434Z,-0.93
2019-01-20T23:02:47.083Z,-0.99
2019-01-20T23:05:15.633Z,-1.07
2019-01-20T23:07:44.008Z,-0.90
2019-01-20T23:10:12.397Z,-0.87
2019-01-20T23:12:40.782Z,-1.21
2019-01-20T23:15:10.201Z,-0.99
2019-01-20T23:17:38.580Z,-0.99
2019-01-20T23:20:10.020Z,-0.87
2019-01-20T23:22:38.393Z,-1.02
2019-01-20T23:25:06.944Z,-1.05
2019-01-20T23:27:35.346Z,-1.10
2019-01-20T23:30:05.329Z,-1.59
2019-01-20T23:32:33.704Z,-1.31
2019-01-20T23:35:02.087Z,-1.29
2019-01-20T23:37:30.503Z,-1.22
2019-01-20T23:39:58.884Z,-1.09
2019-01-20T23:42:27.266Z,-1.09
2019-01-20T23:44:55.641Z,-1.08
2019-01-20T23:47:24.032Z,-1.10
2019-01-20T23:49:52.410Z,-1.21
2019-01-20T23:52:20.795Z,-1.27
2019-01-20T23:54:49.176Z,-1.22
2019-01-20T23:57:17.795Z,-1.32
2019-01-20T23:59:46.180Z,-1.04
